Time;durP1;ratioP1;P1;durP2;ratioP2;P2;SDS_P1;SDS_P2;PMS_P1;PMS_P2;Temp;Humidity;BMP_temperature;BMP_pressure;BME280_temperature;BME280_humidity;BME280_pressure;Samples;Min_cycle;Max_cycle;Signal;HPM_P1;HPM_P2
2021/03/22 00:00:36;;;;;;;27.13;4.17;;;;;;;;;;5037816;28;20224;-69
2021/03/22 00:03:02;;;;;;;27.93;4.10;;;;;;;;;;5041839;28;20735;-69
2021/03/22 00:05:28;;;;;;;34.13;4.40;;;;;;;;;;5036740;28;20220;-69
2021/03/22 00:07:55;;;;;;;37.40;4.90;;;;;;;;;;5035883;28;20211;-69
2021/03/22 00:10:24;;;;;;;31.37;4.83;;;;;;;;;;5035276;28;20213;-69
2021/03/22 00:12:50;;;;;;;28.90;4.47;;;;;;;;;;5043437;28;20593;-69
2021/03/22 00:15:16;;;;;;;30.63;4.67;;;;;;;;;;5036476;28;20311;-69
2021/03/22 00:17:42;;;;;;;24.43;4.93;;;;;;;;;;5041264;28;20211;-69
2021/03/22 00:20:09;;;;;;;31.93;5.43;;;;;;;;;;5040816;28;20268;-69
2021/03/22 00:22:34;;;;;;;36.83;6.60;;;;;;;;;;5036196;28;20283;-69
2021/03/22 00:25:00;;;;;;;28.90;6.40;;;;;;;;;;5042008;28;20268;-70
2021/03/22 00:27:26;;;;;;;25.23;4.93;;;;;;;;;;5034845;28;20219;-70
2021/03/22 00:29:51;;;;;;;32.47;5.17;;;;;;;;;;5037362;28;20272;-69
2021/03/22 00:32:16;;;;;;;27.67;4.73;;;;;;;;;;5038776;28;20224;-69
2021/03/22 00:34:42;;;;;;;31.87;5.03;;;;;;;;;;5036267;28;20544;-69
2021/03/22 00:37:07;;;;;;;30.13;4.73;;;;;;;;;;5031764;28;20645;-69
2021/03/22 00:39:32;;;;;;;29.23;4.67;;;;;;;;;;5040505;28;20177;-69
2021/03/22 00:41:58;;;;;;;31.00;4.77;;;;;;;;;;5035738;28;20284;-69
2021/03/22 00:44:24;;;;;;;29.67;5.37;;;;;;;;;;5041583;28;20950;-69
2021/03/22 00:46:50;;;;;;;25.33;4.90;;;;;;;;;;5035141;28;20216;-70
2021/03/22 00:49:16;;;;;;;24.50;4.93;;;;;;;;;;5041564;28;20205;-69
2021/03/22 00:51:41;;;;;;;33.03;4.77;;;;;;;;;;5042680;28;20236;-70
2021/03/22 00:54:07;;;;;;;29.83;4.87;;;;;;;;;;5025947;28;20669;-70
2021/03/22 00:56:32;;;;;;;27.97;5.10;;;;;;;;;;5044811;28;20289;-69
2021/03/22 00:58:58;;;;;;;31.67;5.17;;;;;;;;;;5033460;28;20177;-69
2021/03/22 01:01:23;;;;;;;32.90;4.33;;;;;;;;;;5041567;28;20588;-70
2021/03/22 01:03:48;;;;;;;32.60;5.47;;;;;;;;;;5034865;28;20215;-69
2021/03/22 01:06:14;;;;;;;31.90;5.33;;;;;;;;;;5033535;28;20200;-69
2021/03/22 01:08:40;;;;;;;34.70;6.47;;;;;;;;;;5032637;28;20206;-70
2021/03/22 01:11:07;;;;;;;28.60;5.13;;;;;;;;;;5046853;28;20185;-69
2021/03/22 01:13:36;;;;;;;29.07;4.90;;;;;;;;;;5031866;28;20197;-69
2021/03/22 01:16:04;;;;;;;25.47;5.23;;;;;;;;;;5035882;28;20717;-69
2021/03/22 01:18:33;;;;;;;27.43;5.90;;;;;;;;;;5033220;28;20585;-69
2021/03/22 01:21:19;;;;;;;28.63;5.53;;;;;;;;;;5046002;28;20193;-69
2021/03/22 01:23:44;;;;;;;33.00;5.10;;;;;;;;;;5029065;28;20185;-69
2021/03/22 01:26:12;;;;;;;33.93;6.70;;;;;;;;;;5037999;28;20542;-70
2021/03/22 01:28:38;;;;;;;30.23;5.83;;;;;;;;;;5035001;28;20209;-70
2021/03/22 01:31:05;;;;;;;28.70;5.60;;;;;;;;;;5040988;28;20189;-70
2021/03/22 01:33:37;;;;;;;29.50;5.63;;;;;;;;;;5043555;28;20197;-69
2021/03/22 01:36:07;;;;;;;26.00;5.10;;;;;;;;;;5030412;28;20331;-69
2021/03/22 01:38:33;;;;;;;32.60;5.77;;;;;;;;;;5036927;28;20538;-69
2021/03/22 01:41:24;;;;;;;20.33;4.33;;;;;;;;;;5035872;28;20188;-70
2021/03/22 01:44:11;;;;;;;27.37;5.13;;;;;;;;;;5038958;28;20251;-69
2021/03/22 01:46:37;;;;;;;26.87;6.10;;;;;;;;;;5028026;28;20786;-70
2021/03/22 01:49:05;;;;;;;32.60;5.80;;;;;;;;;;5037083;28;20296;-70
2021/03/22 01:51:32;;;;;;;37.87;5.77;;;;;;;;;;5033501;28;20709;-70
2021/03/22 01:53:59;;;;;;;23.47;5.07;;;;;;;;;;5041799;28;20211;-70
2021/03/22 01:56:24;;;;;;;28.57;7.00;;;;;;;;;;5032688;28;20215;-70
2021/03/22 01:58:50;;;;;;;31.00;5.87;;;;;;;;;;5036301;28;20198;-69
2021/03/22 02:01:17;;;;;;;28.37;6.43;;;;;;;;;;5028965;28;20190;-69
2021/03/22 02:03:43;;;;;;;29.93;6.13;;;;;;;;;;5038523;28;20208;-69
2021/03/22 02:06:08;;;;;;;27.10;5.30;;;;;;;;;;5035700;28;20300;-69
2021/03/22 02:08:39;;;;;;;30.00;7.83;;;;;;;;;;5036909;28;20561;-70
2021/03/22 02:11:15;;;;;;;26.87;5.50;;;;;;;;;;5030110;28;20189;-70
2021/03/22 02:13:40;;;;;;;31.70;6.40;;;;;;;;;;5038055;28;20194;-69
2021/03/22 02:16:15;;;;;;;25.90;5.37;;;;;;;;;;5035400;28;20181;-70
2021/03/22 02:19:20;;;;;;;26.93;5.50;;;;;;;;;;5037247;28;20271;-69
2021/03/22 02:22:03;;;;;;;27.97;5.80;;;;;;;;;;5032555;28;20246;-69
2021/03/22 02:25:06;;;;;;;26.07;5.73;;;;;;;;;;5034289;28;20488;-70
2021/03/22 02:27:43;;;;;;;26.73;5.77;;;;;;;;;;5029512;28;20228;-70
2021/03/22 02:30:32;;;;;;;32.63;7.03;;;;;;;;;;5039212;28;20185;-70
2021/03/22 02:33:29;;;;;;;26.63;6.10;;;;;;;;;;5029665;28;20323;-70
2021/03/22 02:36:06;;;;;;;29.03;6.43;;;;;;;;;;5037604;28;20184;-70
2021/03/22 02:38:40;;;;;;;22.83;6.43;;;;;;;;;;5032865;28;20199;-70
2021/03/22 02:41:09;;;;;;;30.27;6.33;;;;;;;;;;5041191;28;20190;-69
2021/03/22 02:43:36;;;;;;;25.70;6.93;;;;;;;;;;5030312;28;20308;-70
2021/03/22 02:46:02;;;;;;;28.87;6.80;;;;;;;;;;5039829;28;20247;-70
2021/03/22 02:48:30;;;;;;;29.13;6.83;;;;;;;;;;5033762;28;20281;-70
2021/03/22 02:51:27;;;;;;;35.33;8.83;;;;;;;;;;5037478;28;20646;-70
2021/03/22 02:53:59;;;;;;;23.47;6.03;;;;;;;;;;5032652;28;20573;-70
2021/03/22 02:56:46;;;;;;;23.73;6.57;;;;;;;;;;5034052;28;20206;-69
2021/03/22 02:59:19;;;;;;;29.30;6.53;;;;;;;;;;5031770;28;20625;-70
2021/03/22 03:01:57;;;;;;;27.20;6.33;;;;;;;;;;5031679;28;20190;-70
2021/03/22 03:04:22;;;;;;;33.80;6.83;;;;;;;;;;5032478;28;20224;-70
2021/03/22 03:07:00;;;;;;;36.53;7.87;;;;;;;;;;5039726;28;20194;-70
2021/03/22 03:09:29;;;;;;;29.87;7.00;;;;;;;;;;5032486;28;20209;-70
2021/03/22 03:11:56;;;;;;;29.80;7.30;;;;;;;;;;5038679;28;20190;-70
2021/03/22 03:14:22;;;;;;;33.80;6.20;;;;;;;;;;5035197;28;20295;-70
2021/03/22 03:16:48;;;;;;;25.33;6.73;;;;;;;;;;5040190;28;20288;-70
2021/03/22 03:19:14;;;;;;;32.10;6.80;;;;;;;;;;5043260;28;20235;-70
2021/03/22 03:21:39;;;;;;;25.30;6.67;;;;;;;;;;5035195;28;20278;-69
2021/03/22 03:24:08;;;;;;;31.70;7.70;;;;;;;;;;5043431;28;20173;-69
2021/03/22 03:26:33;;;;;;;35.53;6.97;;;;;;;;;;5037863;28;20221;-69
2021/03/22 03:28:59;;;;;;;27.33;7.03;;;;;;;;;;5040966;28;20252;-70
2021/03/22 03:31:24;;;;;;;35.97;6.50;;;;;;;;;;5038179;28;20242;-70
2021/03/22 03:33:50;;;;;;;29.00;6.50;;;;;;;;;;5039986;28;20200;-70
2021/03/22 03:36:16;;;;;;;30.00;7.60;;;;;;;;;;5037163;28;20183;-70
2021/03/22 03:38:41;;;;;;;21.13;6.97;;;;;;;;;;5039869;28;20330;-70
2021/03/22 03:41:07;;;;;;;28.50;6.80;;;;;;;;;;5036806;28;20272;-70
2021/03/22 03:43:32;;;;;;;26.30;7.23;;;;;;;;;;5039334;28;20286;-70
2021/03/22 03:45:58;;;;;;;30.07;8.67;;;;;;;;;;5034961;28;20356;-70
2021/03/22 03:48:26;;;;;;;29.07;7.20;;;;;;;;;;5043039;28;20641;-70
2021/03/22 03:50:55;;;;;;;25.27;6.70;;;;;;;;;;5046070;28;20260;-70
2021/03/22 03:53:21;;;;;;;31.37;7.23;;;;;;;;;;5031991;28;20194;-70
2021/03/22 03:55:48;;;;;;;34.27;7.27;;;;;;;;;;5047407;28;20189;-70
2021/03/22 03:58:13;;;;;;;37.10;7.10;;;;;;;;;;5030029;28;20292;-70
2021/03/22 04:00:42;;;;;;;28.07;7.97;;;;;;;;;;5041523;28;20316;-70
2021/03/22 04:03:27;;;;;;;37.37;8.40;;;;;;;;;;5030646;28;20541;-70
2021/03/22 04:05:58;;;;;;;31.17;7.80;;;;;;;;;;5037832;28;20277;-70
2021/03/22 04:08:26;;;;;;;24.40;6.70;;;;;;;;;;5028743;28;20653;-70
2021/03/22 04:10:51;;;;;;;25.07;7.63;;;;;;;;;;5041496;28;20194;-70
2021/03/22 04:13:18;;;;;;;33.77;7.63;;;;;;;;;;5035546;28;20204;-70
2021/03/22 04:15:44;;;;;;;34.57;7.20;;;;;;;;;;5042849;28;20190;-70
2021/03/22 04:18:09;;;;;;;31.67;7.53;;;;;;;;;;5036071;28;20552;-70
2021/03/22 04:20:35;;;;;;;32.43;7.43;;;;;;;;;;5039558;28;20185;-70
2021/03/22 04:23:00;;;;;;;29.13;7.93;;;;;;;;;;5035441;28;20193;-70
2021/03/22 04:25:25;;;;;;;35.93;7.07;;;;;;;;;;5041937;28;20201;-70
2021/03/22 04:27:51;;;;;;;34.70;7.53;;;;;;;;;;5041074;28;20198;-70
2021/03/22 04:30:18;;;;;;;28.27;7.03;;;;;;;;;;5034316;28;20217;-70
2021/03/22 04:32:43;;;;;;;30.53;6.87;;;;;;;;;;5042223;28;20202;-70
2021/03/22 04:35:09;;;;;;;33.37;7.30;;;;;;;;;;5034630;28;20186;-70
2021/03/22 04:37:34;;;;;;;29.50;7.10;;;;;;;;;;5042982;28;20182;-70
2021/03/22 04:40:00;;;;;;;28.17;6.97;;;;;;;;;;5034350;28;20496;-70
2021/03/22 04:42:25;;;;;;;28.13;7.23;;;;;;;;;;5041874;28;20193;-70
2021/03/22 04:44:50;;;;;;;34.60;6.60;;;;;;;;;;5034665;28;20799;-70
2021/03/22 04:47:16;;;;;;;24.83;7.43;;;;;;;;;;5037959;28;20201;-70
2021/03/22 04:49:41;;;;;;;36.47;7.53;;;;;;;;;;5028743;28;20205;-70
2021/03/22 04:52:07;;;;;;;32.10;6.73;;;;;;;;;;5037652;28;20623;-70
2021/03/22 04:54:32;;;;;;;30.13;8.00;;;;;;;;;;5037011;28;20193;-70
2021/03/22 04:57:10;;;;;;;35.27;6.20;;;;;;;;;;5039066;28;20221;-69
2021/03/22 04:59:35;;;;;;;31.53;6.70;;;;;;;;;;5038752;28;20686;-70
2021/03/22 05:02:00;;;;;;;27.77;6.53;;;;;;;;;;5035637;28;20185;-70
2021/03/22 05:04:25;;;;;;;35.47;7.03;;;;;;;;;;5041551;28;20256;-70
2021/03/22 05:06:51;;;;;;;21.07;5.70;;;;;;;;;;5028646;28;20208;-70
2021/03/22 05:09:16;;;;;;;26.47;6.33;;;;;;;;;;5032833;28;20210;-70
2021/03/22 05:11:41;;;;;;;21.33;6.70;;;;;;;;;;5029854;28;20197;-70
2021/03/22 05:14:07;;;;;;;26.63;6.57;;;;;;;;;;5031828;28;20522;-70
2021/03/22 05:16:32;;;;;;;31.40;7.53;;;;;;;;;;5028421;28;20641;-70
2021/03/22 05:18:57;;;;;;;30.33;6.50;;;;;;;;;;5032267;28;20182;-70
2021/03/22 05:21:23;;;;;;;28.70;6.90;;;;;;;;;;5027791;28;20622;-70
2021/03/22 05:23:48;;;;;;;24.53;6.00;;;;;;;;;;5034107;28;20269;-69
2021/03/22 05:26:13;;;;;;;29.23;5.67;;;;;;;;;;4327920;28;10000754;-69
2021/03/22 05:28:41;;;;;;;29.37;6.13;;;;;;;;;;5032148;28;20344;-69
2021/03/22 05:31:08;;;;;;;22.50;5.30;;;;;;;;;;5028135;28;20224;-70
2021/03/22 05:33:33;;;;;;;24.83;6.50;;;;;;;;;;5025533;28;20186;-69
2021/03/22 05:36:00;;;;;;;21.37;6.10;;;;;;;;;;5038226;28;20205;-69
2021/03/22 05:38:27;;;;;;;33.20;6.00;;;;;;;;;;5029235;28;20300;-69
2021/03/22 05:40:54;;;;;;;29.07;5.60;;;;;;;;;;5037411;28;20206;-69
2021/03/22 05:43:42;;;;;;;27.87;6.30;;;;;;;;;;5017701;28;20613;-69
2021/03/22 05:46:29;;;;;;;31.30;5.77;;;;;;;;;;5030780;28;20217;-69
2021/03/22 05:49:29;;;;;;;30.57;5.97;;;;;;;;;;5023746;28;20209;-69
2021/03/22 05:52:19;;;;;;;25.57;5.47;;;;;;;;;;5030742;28;20713;-69
2021/03/22 05:55:02;;;;;;;24.30;5.90;;;;;;;;;;5025546;28;20186;-69
2021/03/22 05:58:06;;;;;;;29.53;6.27;;;;;;;;;;5036372;28;20209;-69
2021/03/22 06:00:43;;;;;;;30.80;5.80;;;;;;;;;;5031511;28;20198;-69
2021/03/22 06:03:35;;;;;;;19.80;5.43;;;;;;;;;;5030438;28;20979;-70
2021/03/22 06:06:10;;;;;;;22.67;5.83;;;;;;;;;;5028092;28;20626;-70
2021/03/22 06:08:48;;;;;;;26.53;5.93;;;;;;;;;;5025644;28;20185;-70
2021/03/22 06:11:25;;;;;;;20.00;5.73;;;;;;;;;;5034023;28;20201;-70
2021/03/22 06:13:58;;;;;;;24.10;5.47;;;;;;;;;;5022941;28;20195;-70
2021/03/22 06:16:28;;;;;;;23.83;5.23;;;;;;;;;;5029250;28;20200;-70
2021/03/22 06:19:04;;;;;;;26.90;5.27;;;;;;;;;;5031197;28;20539;-70
2021/03/22 06:21:33;;;;;;;22.87;5.73;;;;;;;;;;5034696;28;20228;-70
2021/03/22 06:23:59;;;;;;;25.87;5.70;;;;;;;;;;5028490;28;20212;-70
2021/03/22 06:26:33;;;;;;;12.83;3.90;;;;;;;;;;5035117;28;20325;-70
2021/03/22 06:29:03;;;;;;;20.70;4.30;;;;;;;;;;5041865;28;20300;-70
2021/03/22 06:31:29;;;;;;;15.10;3.47;;;;;;;;;;5029413;28;20220;-70
2021/03/22 06:34:02;;;;;;;23.63;5.33;;;;;;;;;;5039409;28;20649;-70
2021/03/22 06:36:28;;;;;;;20.93;5.17;;;;;;;;;;5027874;28;20189;-70
2021/03/22 06:38:56;;;;;;;20.50;4.43;;;;;;;;;;5035674;28;20196;-70
2021/03/22 06:41:40;;;;;;;18.03;4.20;;;;;;;;;;5029638;28;20193;-70
2021/03/22 06:44:30;;;;;;;21.20;4.57;;;;;;;;;;5031695;28;20268;-70
2021/03/22 06:47:05;;;;;;;19.70;4.93;;;;;;;;;;5024979;28;20545;-70
2021/03/22 06:49:36;;;;;;;20.87;4.53;;;;;;;;;;5042484;28;20244;-70
2021/03/22 06:52:23;;;;;;;15.47;3.57;;;;;;;;;;5023624;28;20194;-70
2021/03/22 06:54:55;;;;;;;18.67;3.93;;;;;;;;;;4686154;28;10000338;-70
2021/03/22 06:57:22;;;;;;;18.20;4.50;;;;;;;;;;5023443;28;20190;-70
2021/03/22 07:00:14;;;;;;;18.77;3.87;;;;;;;;;;5037774;28;20181;-70
2021/03/22 07:02:46;;;;;;;25.33;5.50;;;;;;;;;;5027749;28;20197;-70
2021/03/22 07:05:29;;;;;;;19.07;4.27;;;;;;;;;;5031877;28;20372;-70
2021/03/22 07:08:09;;;;;;;24.57;5.23;;;;;;;;;;5023026;28;20472;-70
2021/03/22 07:11:06;;;;;;;23.20;4.87;;;;;;;;;;5037113;28;20233;-70
2021/03/22 07:13:33;;;;;;;16.93;4.83;;;;;;;;;;5026784;28;20204;-70
2021/03/22 07:16:10;;;;;;;21.90;4.80;;;;;;;;;;5034690;28;20674;-70
2021/03/22 07:18:37;;;;;;;14.93;4.40;;;;;;;;;;5028321;28;20204;-69
2021/03/22 07:21:18;;;;;;;16.13;4.60;;;;;;;;;;5039398;28;20197;-70
2021/03/22 07:23:48;;;;;;;11.77;4.07;;;;;;;;;;5031134;28;20185;-70
2021/03/22 07:26:22;;;;;;;14.50;3.40;;;;;;;;;;5037911;28;20260;-69
2021/03/22 07:29:18;;;;;;;17.93;3.60;;;;;;;;;;5024750;28;20209;-70
2021/03/22 07:32:34;;;;;;;14.40;3.13;;;;;;;;;;5037399;28;20208;-70
2021/03/22 07:35:43;;;;;;;17.27;3.20;;;;;;;;;;5019860;28;20225;-70
2021/03/22 07:38:09;;;;;;;17.90;3.03;;;;;;;;;;5022084;28;20213;-70
2021/03/22 07:40:53;;;;;;;8.43;2.57;;;;;;;;;;5036521;28;20220;-70
2021/03/22 07:43:50;;;;;;;14.57;2.67;;;;;;;;;;5023695;28;20201;-70
2021/03/22 07:46:18;;;;;;;8.57;2.50;;;;;;;;;;5014742;28;20719;-70
2021/03/22 07:48:53;;;;;;;7.27;2.17;;;;;;;;;;5024669;28;20548;-70
2021/03/22 07:51:56;;;;;;;7.77;2.13;;;;;;;;;;5033763;28;20185;-70
2021/03/22 07:54:27;;;;;;;10.17;1.80;;;;;;;;;;5027071;28;20192;-70
2021/03/22 07:57:02;;;;;;;6.23;2.00;;;;;;;;;;5033316;28;20200;-70
2021/03/22 07:59:35;;;;;;;6.60;1.97;;;;;;;;;;5030961;28;20181;-70
2021/03/22 08:02:34;;;;;;;6.20;2.40;;;;;;;;;;5040124;28;20193;-70
2021/03/22 08:05:23;;;;;;;9.70;2.10;;;;;;;;;;5031027;28;20273;-70
2021/03/22 08:08:09;;;;;;;6.63;1.87;;;;;;;;;;5039349;28;20213;-70
2021/03/22 08:10:58;;;;;;;8.63;2.00;;;;;;;;;;5034543;28;20231;-70
2021/03/22 08:13:36;;;;;;;6.43;1.50;;;;;;;;;;5035019;28;20198;-69
2021/03/22 08:16:09;;;;;;;6.33;1.43;;;;;;;;;;5031155;28;20198;-69
2021/03/22 08:18:54;;;;;;;5.87;1.30;;;;;;;;;;5041803;28;20326;-70
2021/03/22 08:21:29;;;;;;;4.13;1.07;;;;;;;;;;5030519;28;20829;-69
2021/03/22 08:23:59;;;;;;;4.43;1.30;;;;;;;;;;5043793;28;20277;-68
2021/03/22 08:26:32;;;;;;;11.47;1.80;;;;;;;;;;5030094;28;20224;-69
2021/03/22 08:29:06;;;;;;;7.27;1.83;;;;;;;;;;5041537;28;20213;-69
2021/03/22 08:31:34;;;;;;;5.90;1.50;;;;;;;;;;5030359;28;20189;-69
2021/03/22 08:34:20;;;;;;;8.07;1.60;;;;;;;;;;5033711;28;20208;-69
2021/03/22 08:37:12;;;;;;;5.30;1.37;;;;;;;;;;5024199;28;20197;-69
2021/03/22 08:40:00;;;;;;;9.57;1.43;;;;;;;;;;5039986;28;20186;-69
2021/03/22 08:42:31;;;;;;;9.10;1.20;;;;;;;;;;5030814;28;20616;-69
2021/03/22 08:45:11;;;;;;;4.80;1.13;;;;;;;;;;5039186;28;20716;-69
2021/03/22 08:47:43;;;;;;;3.92;0.98;;;;;;;;;;5029286;28;20200;-69
2021/03/22 08:50:11;;;;;;;3.63;0.90;;;;;;;;;;5039631;28;20316;-69
2021/03/22 08:52:41;;;;;;;1.93;1.03;;;;;;;;;;5029533;28;20190;-70
2021/03/22 08:55:12;;;;;;;3.80;0.97;;;;;;;;;;5038334;28;21272;-69
2021/03/22 08:58:04;;;;;;;3.77;0.70;;;;;;;;;;5037030;28;20280;-69
2021/03/22 09:00:37;;;;;;;1.77;0.70;;;;;;;;;;5039477;28;20197;-69
2021/03/22 09:03:16;;;;;;;2.40;0.60;;;;;;;;;;5030554;28;20273;-69
2021/03/22 09:06:03;;;;;;;3.37;0.80;;;;;;;;;;5038795;28;20655;-69
2021/03/22 09:08:31;;;;;;;2.57;0.90;;;;;;;;;;5034296;28;20239;-69
2021/03/22 09:11:14;;;;;;;3.70;0.53;;;;;;;;;;5038929;28;20190;-69
2021/03/22 09:13:51;;;;;;;1.17;0.37;;;;;;;;;;5031873;28;20230;-70
2021/03/22 09:16:22;;;;;;;5.33;0.70;;;;;;;;;;5034940;28;20193;-70
2021/03/22 09:19:12;;;;;;;2.20;0.90;;;;;;;;;;5032380;28;20242;-69
2021/03/22 09:21:48;;;;;;;5.13;0.97;;;;;;;;;;5037463;28;20280;-69
2021/03/22 09:24:42;;;;;;;3.63;0.83;;;;;;;;;;5024801;28;20220;-69
2021/03/22 09:27:14;;;;;;;5.13;1.07;;;;;;;;;;5039643;28;20177;-69
2021/03/22 09:29:44;;;;;;;2.93;0.70;;;;;;;;;;5031268;28;20218;-69
2021/03/22 09:32:28;;;;;;;4.53;0.93;;;;;;;;;;5037927;28;20186;-69
2021/03/22 09:35:14;;;;;;;3.63;0.73;;;;;;;;;;5032812;28;20193;-69
2021/03/22 09:37:56;;;;;;;5.07;0.90;;;;;;;;;;5037441;28;20288;-70
2021/03/22 09:40:22;;;;;;;5.20;1.03;;;;;;;;;;5027583;28;20569;-69
2021/03/22 09:43:02;;;;;;;2.53;1.37;;;;;;;;;;5039070;28;20201;-70
2021/03/22 09:45:28;;;;;;;3.47;1.10;;;;;;;;;;5029255;28;20233;-69
2021/03/22 09:48:16;;;;;;;5.80;1.23;;;;;;;;;;5035599;28;20204;-70
2021/03/22 09:50:49;;;;;;;4.47;1.10;;;;;;;;;;5027439;28;20210;-69
2021/03/22 09:53:20;;;;;;;4.75;1.10;;;;;;;;;;5039359;28;20209;-70
2021/03/22 09:55:56;;;;;;;6.50;1.20;;;;;;;;;;5033403;28;20185;-69
2021/03/22 09:58:33;;;;;;;4.17;1.00;;;;;;;;;;5037035;28;20204;-69
2021/03/22 10:01:04;;;;;;;2.10;0.90;;;;;;;;;;5023359;28;20201;-71
2021/03/22 10:03:40;;;;;;;3.70;0.70;;;;;;;;;;5039762;28;20228;-70
2021/03/22 10:06:40;;;;;;;3.20;1.17;;;;;;;;;;5028797;28;20192;-70
2021/03/22 10:09:14;;;;;;;6.33;1.20;;;;;;;;;;5036009;28;20743;-70
2021/03/22 10:11:42;;;;;;;4.40;1.23;;;;;;;;;;5033619;28;20181;-71
2021/03/22 10:14:17;;;;;;;5.50;1.20;;;;;;;;;;5040681;28;20178;-71
2021/03/22 10:16:45;;;;;;;1.77;0.80;;;;;;;;;;5027648;28;20276;-70
2021/03/22 10:19:15;;;;;;;3.70;0.50;;;;;;;;;;5035984;28;20186;-70
2021/03/22 10:21:52;;;;;;;4.87;0.80;;;;;;;;;;5035681;28;20185;-71
2021/03/22 10:24:41;;;;;;;2.17;0.70;;;;;;;;;;5033515;28;21034;-71
2021/03/22 10:27:40;;;;;;;3.50;0.60;;;;;;;;;;5023357;28;20186;-71
2021/03/22 10:30:16;;;;;;;2.28;0.73;;;;;;;;;;5024621;28;20247;-71
2021/03/22 10:32:50;;;;;;;0.60;0.60;;;;;;;;;;5031922;28;20213;-70
2021/03/22 10:35:19;;;;;;;5.60;0.90;;;;;;;;;;5033758;28;20235;-70
2021/03/22 10:37:48;;;;;;;2.73;0.70;;;;;;;;;;5033177;28;20217;-70
2021/03/22 10:40:27;;;;;;;3.07;1.00;;;;;;;;;;5037956;28;20196;-71
2021/03/22 10:42:54;;;;;;;4.20;0.70;;;;;;;;;;5031168;28;20235;-71
2021/03/22 10:45:23;;;;;;;1.10;0.60;;;;;;;;;;5036489;28;20243;-71
2021/03/22 10:47:49;;;;;;;2.67;0.80;;;;;;;;;;5027271;28;20221;-70
2021/03/22 10:50:26;;;;;;;2.07;0.80;;;;;;;;;;5036639;28;20690;-70
2021/03/22 10:53:04;;;;;;;1.17;0.80;;;;;;;;;;5029137;28;20189;-71
2021/03/22 10:55:31;;;;;;;1.60;0.60;;;;;;;;;;5038662;28;20189;-70
2021/03/22 10:57:59;;;;;;;3.00;1.23;;;;;;;;;;5027762;28;20213;-70
2021/03/22 11:00:36;;;;;;;3.27;1.00;;;;;;;;;;5031718;28;20190;-69
2021/03/22 11:03:04;;;;;;;4.63;1.50;;;;;;;;;;5037335;28;20511;-69
2021/03/22 11:05:33;;;;;;;5.80;1.40;;;;;;;;;;5027998;28;20197;-69
2021/03/22 11:08:04;;;;;;;7.00;1.10;;;;;;;;;;5038266;28;20188;-69
2021/03/22 11:10:30;;;;;;;2.10;0.93;;;;;;;;;;5027494;28;20297;-69
2021/03/22 11:12:56;;;;;;;8.07;1.60;;;;;;;;;;5028999;28;20181;-70
2021/03/22 11:15:37;;;;;;;4.33;0.97;;;;;;;;;;5027747;28;20587;-70
2021/03/22 11:18:14;;;;;;;6.53;1.03;;;;;;;;;;5040017;28;20197;-70
2021/03/22 11:20:44;;;;;;;4.50;0.60;;;;;;;;;;5024756;28;20221;-69
2021/03/22 11:23:27;;;;;;;2.13;0.77;;;;;;;;;;5032596;28;20190;-70
2021/03/22 11:26:13;;;;;;;1.95;0.70;;;;;;;;;;5025093;28;20607;-70
2021/03/22 11:28:38;;;;;;;2.97;0.70;;;;;;;;;;5039597;28;20185;-71
2021/03/22 11:31:07;;;;;;;1.88;0.50;;;;;;;;;;5029430;28;20507;-71
2021/03/22 11:33:45;;;;;;;1.73;0.70;;;;;;;;;;5035866;28;20218;-70
2021/03/22 11:36:19;;;;;;;1.95;0.60;;;;;;;;;;5031408;28;20182;-70
2021/03/22 11:38:46;;;;;;;2.80;0.65;;;;;;;;;;5045462;28;20536;-70
2021/03/22 11:41:32;;;;;;;2.05;0.50;;;;;;;;;;5033340;28;20649;-71
2021/03/22 11:44:19;;;;;;;2.05;0.65;;;;;;;;;;5036959;28;20854;-71
2021/03/22 11:46:47;;;;;;;2.05;0.52;;;;;;;;;;5032794;28;20210;-70
2021/03/22 11:49:38;;;;;;;2.95;0.68;;;;;;;;;;5039729;28;20232;-71
2021/03/22 11:52:15;;;;;;;2.22;0.47;;;;;;;;;;5036282;28;20193;-71
2021/03/22 11:55:26;;;;;;;2.72;0.52;;;;;;;;;;5041302;28;20187;-70
2021/03/22 11:57:52;;;;;;;2.38;0.50;;;;;;;;;;5032246;28;20276;-70
2021/03/22 12:00:20;;;;;;;1.67;0.40;;;;;;;;;;5045534;28;20292;-70
2021/03/22 12:02:56;;;;;;;3.03;1.13;;;;;;;;;;5030558;28;20200;-70
2021/03/22 12:05:35;;;;;;;2.15;0.57;;;;;;;;;;5041432;28;20178;-70
2021/03/22 12:08:00;;;;;;;1.98;0.50;;;;;;;;;;5030336;28;20607;-70
2021/03/22 12:10:32;;;;;;;3.05;0.65;;;;;;;;;;5040383;28;20271;-70
2021/03/22 12:12:59;;;;;;;2.85;0.60;;;;;;;;;;5033472;28;20268;-70
2021/03/22 12:15:26;;;;;;;2.30;0.80;;;;;;;;;;5035212;28;20189;-70
2021/03/22 12:18:17;;;;;;;5.28;0.85;;;;;;;;;;5031997;28;20244;-70
2021/03/22 12:20:42;;;;;;;2.83;0.73;;;;;;;;;;5042030;28;20680;-70
2021/03/22 12:23:08;;;;;;;3.75;0.90;;;;;;;;;;5030802;28;20189;-71
2021/03/22 12:25:36;;;;;;;2.75;0.63;;;;;;;;;;5037785;28;20194;-70
2021/03/22 12:28:02;;;;;;;4.53;0.82;;;;;;;;;;5030694;28;20664;-70
2021/03/22 12:30:28;;;;;;;5.05;1.08;;;;;;;;;;5042749;28;20209;-71
2021/03/22 12:32:54;;;;;;;4.20;1.08;;;;;;;;;;5032957;28;20523;-71
2021/03/22 12:35:30;;;;;;;4.38;0.90;;;;;;;;;;5038286;28;20189;-70
2021/03/22 12:37:55;;;;;;;3.72;0.90;;;;;;;;;;5037844;28;20192;-71
2021/03/22 12:40:21;;;;;;;3.03;0.70;;;;;;;;;;5025889;28;20186;-71
2021/03/22 12:42:47;;;;;;;5.35;1.20;;;;;;;;;;5036869;28;20268;-69
2021/03/22 12:45:25;;;;;;;5.32;0.90;;;;;;;;;;5025515;28;20221;-69
2021/03/22 12:47:51;;;;;;;4.93;1.00;;;;;;;;;;5038595;28;20209;-70
2021/03/22 12:50:20;;;;;;;3.35;1.05;;;;;;;;;;5030128;28;20213;-71
2021/03/22 12:52:47;;;;;;;5.45;0.98;;;;;;;;;;5037342;28;20240;-70
2021/03/22 12:55:13;;;;;;;5.75;1.63;;;;;;;;;;5028229;28;20935;-71
2021/03/22 12:57:39;;;;;;;5.28;1.20;;;;;;;;;;5042163;28;20241;-70
2021/03/22 13:00:05;;;;;;;6.07;1.35;;;;;;;;;;5029233;28;20675;-69
2021/03/22 13:02:32;;;;;;;7.70;1.35;;;;;;;;;;5040728;28;20620;-69
2021/03/22 13:04:58;;;;;;;4.22;1.52;;;;;;;;;;5032887;28;20205;-70
2021/03/22 13:07:23;;;;;;;7.78;1.10;;;;;;;;;;5042210;28;20251;-69
2021/03/22 13:09:49;;;;;;;4.38;1.33;;;;;;;;;;5029058;28;20198;-70
2021/03/22 13:12:24;;;;;;;6.70;1.40;;;;;;;;;;5039628;28;20209;-70
2021/03/22 13:14:51;;;;;;;4.50;1.80;;;;;;;;;;5035096;28;20187;-70
2021/03/22 13:17:17;;;;;;;5.82;1.17;;;;;;;;;;5026583;28;20236;-70
2021/03/22 13:19:43;;;;;;;3.97;0.90;;;;;;;;;;5036756;28;20579;-70
2021/03/22 13:22:15;;;;;;;3.00;0.85;;;;;;;;;;5022720;28;20193;-70
2021/03/22 13:24:41;;;;;;;7.18;0.90;;;;;;;;;;5034839;28;20663;-69
2021/03/22 13:27:09;;;;;;;3.38;1.17;;;;;;;;;;5025147;28;20197;-69
2021/03/22 13:29:34;;;;;;;4.32;0.90;;;;;;;;;;5041269;28;20691;-69
2021/03/22 13:32:00;;;;;;;4.88;1.40;;;;;;;;;;5027315;28;20209;-69
2021/03/22 13:34:28;;;;;;;4.28;1.40;;;;;;;;;;5037283;28;20637;-70
2021/03/22 13:36:53;;;;;;;6.88;1.30;;;;;;;;;;5029264;28;20186;-70
2021/03/22 13:39:19;;;;;;;4.03;1.20;;;;;;;;;;5030219;28;20188;-69
2021/03/22 13:41:44;;;;;;;6.45;1.58;;;;;;;;;;5027357;28;20661;-70
2021/03/22 13:44:12;;;;;;;6.38;1.20;;;;;;;;;;5039996;28;20685;-70
2021/03/22 13:46:38;;;;;;;5.22;0.93;;;;;;;;;;5030165;28;20582;-70
2021/03/22 13:49:04;;;;;;;6.40;1.15;;;;;;;;;;5040385;28;20236;-69
2021/03/22 13:51:33;;;;;;;4.72;1.13;;;;;;;;;;5034899;28;20282;-70
2021/03/22 13:53:59;;;;;;;4.88;1.48;;;;;;;;;;5033749;28;20197;-70
2021/03/22 13:56:25;;;;;;;4.65;1.05;;;;;;;;;;5033225;28;20654;-70
2021/03/22 13:58:50;;;;;;;3.03;0.98;;;;;;;;;;5028574;28;20281;-70
2021/03/22 14:01:15;;;;;;;2.85;1.00;;;;;;;;;;5040791;28;20200;-70
2021/03/22 14:03:41;;;;;;;4.93;0.95;;;;;;;;;;5031735;28;20700;-70
2021/03/22 14:06:07;;;;;;;4.50;1.15;;;;;;;;;;5036411;28;20212;-70
2021/03/22 14:08:33;;;;;;;5.32;1.20;;;;;;;;;;5027649;28;20198;-70
2021/03/22 14:10:58;;;;;;;4.60;1.30;;;;;;;;;;5040985;28;20208;-69
2021/03/22 14:13:24;;;;;;;4.18;1.23;;;;;;;;;;5033875;28;20745;-69
2021/03/22 14:15:49;;;;;;;5.50;1.55;;;;;;;;;;5041695;28;20200;-70
2021/03/22 14:18:19;;;;;;;3.22;1.30;;;;;;;;;;5025658;28;21525;-70
2021/03/22 14:20:45;;;;;;;7.60;1.63;;;;;;;;;;5035562;28;20188;-69
2021/03/22 14:23:13;;;;;;;10.48;1.60;;;;;;;;;;5028678;28;20189;-70
2021/03/22 14:25:39;;;;;;;4.97;1.27;;;;;;;;;;5033947;28;20207;-69
2021/03/22 14:28:05;;;;;;;7.05;1.67;;;;;;;;;;5034065;28;20194;-69
2021/03/22 14:30:33;;;;;;;4.30;1.27;;;;;;;;;;5031485;28;20625;-69
2021/03/22 14:32:59;;;;;;;4.93;1.40;;;;;;;;;;5035472;28;20217;-70
2021/03/22 14:35:26;;;;;;;6.55;1.35;;;;;;;;;;5027996;28;20645;-70
2021/03/22 14:37:52;;;;;;;7.35;1.60;;;;;;;;;;5039823;28;20186;-69
2021/03/22 14:40:18;;;;;;;6.47;1.30;;;;;;;;;;5033633;28;20187;-69
2021/03/22 14:42:44;;;;;;;7.38;1.75;;;;;;;;;;5040494;28;20580;-69
2021/03/22 14:45:12;;;;;;;4.97;1.00;;;;;;;;;;5034275;28;20221;-70
2021/03/22 14:47:38;;;;;;;5.65;1.20;;;;;;;;;;5034610;28;20249;-70
2021/03/22 14:50:05;;;;;;;3.50;1.13;;;;;;;;;;5027573;28;20255;-70
2021/03/22 14:52:30;;;;;;;5.18;1.20;;;;;;;;;;5034954;28;20185;-70
2021/03/22 14:54:56;;;;;;;3.00;0.90;;;;;;;;;;5029787;28;20196;-70
2021/03/22 14:57:21;;;;;;;6.07;1.00;;;;;;;;;;5037028;28;20185;-70
2021/03/22 14:59:47;;;;;;;5.95;1.33;;;;;;;;;;5037155;28;20690;-70
2021/03/22 15:02:12;;;;;;;4.32;1.23;;;;;;;;;;5020728;28;20261;-70
2021/03/22 15:04:38;;;;;;;5.50;1.30;;;;;;;;;;5042493;28;20679;-70